Time;durP1;ratioP1;P1;durP2;ratioP2;P2;SDS_P1;SDS_P2;PMS_P1;PMS_P2;Temp;Humidity;BMP_temperature;BMP_pressure;BME280_temperature;BME280_humidity;BME280_pressure;Samples;Min_cycle;Max_cycle;Signal;HPM_P1;HPM_P2
2022/03/30 00:04:01;;;;;;;66.75;27.23;;;;;;;;;;10138236;29;20188;-65
2022/03/30 00:09:03;;;;;;;62.22;27.02;;;;;;;;;;10125276;29;20056;-67
2022/03/30 00:14:07;;;;;;;59.67;26.75;;;;;;;;;;10155760;29;20051;-67
2022/03/30 00:19:09;;;;;;;52.08;24.23;;;;;;;;;;10156342;29;20052;-65
2022/03/30 00:24:11;;;;;;;58.10;26.50;;;;;;;;;;10156756;29;20052;-66
2022/03/30 00:29:15;;;;;;;59.42;27.27;;;;;;;;;;10154742;29;20224;-65
2022/03/30 00:34:17;;;;;;;65.95;28.60;;;;;;;;;;10155262;29;20048;-65
2022/03/30 00:39:20;;;;;;;64.38;27.95;;;;;;;;;;10156449;29;20285;-66
2022/03/30 00:44:24;;;;;;;63.63;27.50;;;;;;;;;;10153317;29;20052;-65
2022/03/30 00:49:26;;;;;;;69.55;26.40;;;;;;;;;;10172133;29;20059;-66
2022/03/30 00:54:28;;;;;;;65.53;25.80;;;;;;;;;;10167972;29;20092;-66
2022/03/30 00:59:32;;;;;;;63.22;26.45;;;;;;;;;;10154500;29;20346;-66
2022/03/30 01:04:37;;;;;;;60.50;26.13;;;;;;;;;;10153849;29;20068;-66
2022/03/30 01:09:40;;;;;;;56.33;23.95;;;;;;;;;;10152868;29;20060;-66
2022/03/30 01:14:44;;;;;;;57.70;23.85;;;;;;;;;;10154150;29;20052;-66
2022/03/30 01:19:46;;;;;;;56.42;24.25;;;;;;;;;;10153697;29;20403;-66
2022/03/30 01:24:50;;;;;;;51.72;24.15;;;;;;;;;;10154025;29;20373;-66
2022/03/30 01:35:13;;;;;;;68.20;24.98;;;;;;;;;;10165244;29;20115;-66
2022/03/30 01:40:16;;;;;;;56.05;24.80;;;;;;;;;;10151779;29;20060;-66
2022/03/30 01:45:19;;;;;;;55.55;26.23;;;;;;;;;;10153549;29;20060;-66
2022/03/30 01:50:22;;;;;;;64.47;28.67;;;;;;;;;;10153770;29;20044;-66
2022/03/30 01:55:26;;;;;;;81.72;35.55;;;;;;;;;;10151071;29;20044;-66
2022/03/30 02:00:28;;;;;;;72.25;35.38;;;;;;;;;;10167121;29;20232;-66
2022/03/30 02:05:32;;;;;;;64.05;27.80;;;;;;;;;;10152455;29;20124;-66
2022/03/30 02:10:37;;;;;;;62.97;25.63;;;;;;;;;;10148956;29;20052;-66
2022/03/30 02:15:39;;;;;;;62.57;23.67;;;;;;;;;;10152841;29;20064;-66
2022/03/30 02:20:41;;;;;;;50.53;22.45;;;;;;;;;;10149608;29;20045;-65
2022/03/30 02:25:45;;;;;;;50.53;23.10;;;;;;;;;;10151943;29;20048;-66
2022/03/30 02:30:48;;;;;;;51.78;21.67;;;;;;;;;;10150034;29;20045;-66
2022/03/30 02:35:51;;;;;;;49.70;21.13;;;;;;;;;;10149989;29;20354;-66
2022/03/30 02:40:54;;;;;;;47.45;21.02;;;;;;;;;;10150558;29;20040;-66
2022/03/30 02:45:57;;;;;;;49.40;20.65;;;;;;;;;;10150348;29;20049;-66
2022/03/30 02:51:02;;;;;;;47.20;19.80;;;;;;;;;;10150298;29;20347;-67
2022/03/30 02:56:06;;;;;;;47.23;18.53;;;;;;;;;;10148995;29;20048;-66
2022/03/30 03:01:09;;;;;;;43.97;20.00;;;;;;;;;;10149628;29;20048;-66
2022/03/30 03:06:12;;;;;;;49.22;20.95;;;;;;;;;;10149973;29;20068;-66
2022/03/30 03:11:16;;;;;;;75.30;28.95;;;;;;;;;;10150077;29;20232;-66
2022/03/30 03:16:19;;;;;;;64.53;26.50;;;;;;;;;;10148018;29;20045;-66
2022/03/30 03:21:21;;;;;;;53.00;23.88;;;;;;;;;;10150902;29;20041;-67
2022/03/30 03:26:24;;;;;;;51.83;22.27;;;;;;;;;;10141384;29;20105;-66
2022/03/30 03:31:27;;;;;;;47.75;22.27;;;;;;;;;;10127653;29;20049;-66
2022/03/30 03:36:29;;;;;;;51.97;21.25;;;;;;;;;;10156757;29;20057;-66
2022/03/30 03:41:33;;;;;;;50.63;21.58;;;;;;;;;;10157882;29;20045;-65
2022/03/30 03:46:35;;;;;;;55.35;22.13;;;;;;;;;;10156197;29;20112;-66
2022/03/30 03:51:40;;;;;;;58.63;21.90;;;;;;;;;;10156017;29;20056;-66
2022/03/30 03:56:44;;;;;;;61.90;21.08;;;;;;;;;;10156453;29;20056;-66
2022/03/30 04:01:46;;;;;;;51.72;21.27;;;;;;;;;;10157127;29;20044;-67
2022/03/30 04:06:49;;;;;;;49.65;20.80;;;;;;;;;;10154262;29;20068;-66
2022/03/30 04:11:53;;;;;;;46.60;20.65;;;;;;;;;;10155197;29;20276;-66
2022/03/30 04:16:55;;;;;;;51.13;20.33;;;;;;;;;;10155451;29;20059;-65
2022/03/30 04:21:58;;;;;;;52.88;21.50;;;;;;;;;;10154329;29;20047;-67
2022/03/30 04:27:01;;;;;;;49.60;21.52;;;;;;;;;;10154376;29;20052;-65
2022/03/30 04:32:04;;;;;;;97.75;44.03;;;;;;;;;;10154169;29;20060;-66
2022/03/30 04:37:06;;;;;;;50.90;21.23;;;;;;;;;;10155215;29;20044;-65
2022/03/30 04:42:10;;;;;;;59.65;21.88;;;;;;;;;;10152338;29;20040;-66
2022/03/30 04:47:12;;;;;;;51.70;19.02;;;;;;;;;;10154361;29;20067;-66
2022/03/30 04:52:15;;;;;;;52.60;20.02;;;;;;;;;;10155550;29;20049;-65
2022/03/30 04:57:18;;;;;;;47.05;19.25;;;;;;;;;;10133263;29;20056;-67
2022/03/30 05:02:21;;;;;;;45.38;19.30;;;;;;;;;;10131814;29;20069;-65
2022/03/30 05:07:24;;;;;;;57.60;24.42;;;;;;;;;;10128610;29;20256;-67
2022/03/30 05:12:28;;;;;;;76.03;30.48;;;;;;;;;;10130119;29;20048;-66
2022/03/30 05:17:30;;;;;;;58.92;21.90;;;;;;;;;;10154031;29;20049;-67
2022/03/30 05:22:33;;;;;;;55.85;23.92;;;;;;;;;;10154251;29;20084;-66
2022/03/30 05:27:38;;;;;;;44.60;21.35;;;;;;;;;;10149794;29;20182;-67
2022/03/30 05:32:44;;;;;;;56.95;21.42;;;;;;;;;;10153757;29;20221;-67
2022/03/30 05:37:47;;;;;;;46.53;20.60;;;;;;;;;;10167380;29;20088;-67
2022/03/30 05:42:51;;;;;;;55.03;19.60;;;;;;;;;;10152434;29;20048;-67
2022/03/30 05:47:53;;;;;;;45.45;20.77;;;;;;;;;;10152868;29;20359;-67
2022/03/30 05:52:55;;;;;;;50.67;21.10;;;;;;;;;;10153625;29;20064;-67
2022/03/30 05:57:59;;;;;;;47.22;18.38;;;;;;;;;;10148857;29;20056;-66
2022/03/30 06:03:03;;;;;;;41.22;17.27;;;;;;;;;;10152493;29;20083;-67
2022/03/30 06:08:05;;;;;;;38.45;16.73;;;;;;;;;;10152601;29;20063;-67
2022/03/30 06:13:09;;;;;;;39.42;15.55;;;;;;;;;;10147583;29;20037;-67
2022/03/30 06:18:13;;;;;;;34.90;13.50;;;;;;;;;;10119381;29;20250;-68
2022/03/30 06:23:15;;;;;;;28.77;14.45;;;;;;;;;;10114168;29;20309;-67
2022/03/30 06:28:22;;;;;;;28.58;12.45;;;;;;;;;;10149176;29;20104;-67
2022/03/30 06:33:25;;;;;;;26.48;12.75;;;;;;;;;;10164162;29;20060;-67
2022/03/30 06:38:27;;;;;;;23.45;11.48;;;;;;;;;;10149337;29;20052;-67
2022/03/30 06:43:31;;;;;;;;;;;;;;;;;;10149090;29;20142;-69
2022/03/30 06:48:34;;;;;;;24.55;11.73;;;;;;;;;;10150114;29;20223;-69
2022/03/30 06:53:36;;;;;;;22.33;13.48;;;;;;;;;;10147632;29;20045;-67
2022/03/30 06:58:40;;;;;;;20.25;8.80;;;;;;;;;;10121219;29;20060;-69
2022/03/30 07:03:43;;;;;;;15.00;7.85;;;;;;;;;;10116479;29;20068;-68
2022/03/30 07:14:06;;;;;;;17.50;8.80;;;;;;;;;;10171328;29;20060;-69
2022/03/30 07:19:08;;;;;;;13.55;7.63;;;;;;;;;;10156679;29;20052;-69
2022/03/30 07:24:10;;;;;;;12.65;6.68;;;;;;;;;;10156997;29;20040;-68
2022/03/30 07:29:14;;;;;;;13.13;6.75;;;;;;;;;;10140270;29;20395;-69
2022/03/30 07:34:17;;;;;;;13.93;5.88;;;;;;;;;;10157264;29;20108;-69
2022/03/30 07:39:19;;;;;;;15.13;6.53;;;;;;;;;;10156094;29;20235;-69
2022/03/30 07:44:23;;;;;;;15.18;6.53;;;;;;;;;;10155505;29;20241;-72
2022/03/30 07:49:26;;;;;;;12.80;4.82;;;;;;;;;;10156444;29;20048;-69
2022/03/30 07:54:28;;;;;;;8.85;5.13;;;;;;;;;;10156341;29;20044;-68
2022/03/30 07:59:32;;;;;;;9.65;5.25;;;;;;;;;;10153494;29;20416;-75
2022/03/30 08:04:35;;;;;;;13.90;6.05;;;;;;;;;;10150392;29;20072;-70
2022/03/30 08:09:37;;;;;;;11.38;4.40;;;;;;;;;;10150881;29;20045;-69
2022/03/30 08:14:41;;;;;;;10.13;3.28;;;;;;;;;;10153571;29;20044;-70
2022/03/30 08:19:43;;;;;;;5.20;2.50;;;;;;;;;;10151312;29;20059;-70
2022/03/30 08:24:46;;;;;;;4.75;2.03;;;;;;;;;;10154947;29;20042;-69
2022/03/30 08:29:51;;;;;;;4.60;1.90;;;;;;;;;;10153848;29;20044;-71
2022/03/30 08:34:55;;;;;;;5.47;1.88;;;;;;;;;;10153752;29;20041;-70
2022/03/30 08:39:58;;;;;;;9.95;2.10;;;;;;;;;;10153657;29;20272;-68
2022/03/30 08:45:02;;;;;;;4.60;1.50;;;;;;;;;;10153535;29;20243;-68
2022/03/30 08:50:06;;;;;;;5.55;2.30;;;;;;;;;;10140712;29;20060;-67
2022/03/30 08:55:08;;;;;;;3.38;2.08;;;;;;;;;;10118415;29;20061;-69
2022/03/30 09:00:17;;;;;;;4.60;2.03;;;;;;;;;;10136327;29;20052;-68
2022/03/30 09:05:23;;;;;;;7.05;2.20;;;;;;;;;;10149399;29;20052;-69
2022/03/30 09:10:31;;;;;;;4.28;2.22;;;;;;;;;;10152040;29;20041;-68
2022/03/30 09:15:36;;;;;;;5.15;2.80;;;;;;;;;;10167077;29;20081;-69
2022/03/30 09:20:42;;;;;;;7.13;2.55;;;;;;;;;;10152034;29;20283;-69
2022/03/30 09:25:45;;;;;;;3.05;1.90;;;;;;;;;;10166091;29;20056;-69
2022/03/30 09:30:50;;;;;;;9.15;3.78;;;;;;;;;;10152644;29;20040;-66
2022/03/30 09:35:52;;;;;;;6.55;3.40;;;;;;;;;;10150071;29;20069;-68
2022/03/30 09:40:57;;;;;;;7.40;3.30;;;;;;;;;;10152601;29;20056;-69
2022/03/30 09:46:09;;;;;;;5.68;2.60;;;;;;;;;;10151467;29;20052;-68
2022/03/30 09:51:12;;;;;;;;;;;;;;;;;;10164832;29;20052;-69
2022/03/30 09:56:15;;;;;;;7.40;3.17;;;;;;;;;;10151489;29;20095;-68
2022/03/30 10:01:22;;;;;;;5.97;3.08;;;;;;;;;;10152674;29;20049;-69
2022/03/30 10:06:27;;;;;;;9.32;3.75;;;;;;;;;;10152632;29;20101;-69
2022/03/30 10:11:30;;;;;;;7.13;3.92;;;;;;;;;;10148865;29;20060;-74
2022/03/30 10:16:34;;;;;;;5.93;3.38;;;;;;;;;;10146285;29;20059;-69
2022/03/30 10:21:46;;;;;;;10.10;3.05;;;;;;;;;;10144609;29;20052;-68
2022/03/30 10:26:59;;;;;;;7.80;2.92;;;;;;;;;;10161063;29;20041;-68
2022/03/30 10:32:19;;;;;;;8.70;3.30;;;;;;;;;;10160225;29;20083;-67
2022/03/30 10:37:25;;;;;;;8.20;3.25;;;;;;;;;;10155637;29;20370;-69
2022/03/30 10:42:28;;;;;;;11.57;4.13;;;;;;;;;;10155790;29;20324;-67
2022/03/30 10:47:31;;;;;;;6.32;3.05;;;;;;;;;;10157391;29;20339;-69
2022/03/30 10:52:38;;;;;;;5.10;2.70;;;;;;;;;;10155703;29;20052;-66
2022/03/30 10:57:44;;;;;;;6.45;3.85;;;;;;;;;;10156588;29;20053;-68
2022/03/30 11:02:49;;;;;;;6.53;2.72;;;;;;;;;;10156302;29;20060;-66
2022/03/30 11:07:51;;;;;;;6.88;2.92;;;;;;;;;;10168629;29;20048;-68
2022/03/30 11:13:14;;;;;;;7.03;2.47;;;;;;;;;;10155124;29;20036;-69
2022/03/30 11:18:19;;;;;;;5.93;2.58;;;;;;;;;;10167527;29;20240;-69
2022/03/30 11:23:21;;;;;;;;;;;;;;;;;;10150921;29;20071;-67
2022/03/30 11:28:36;;;;;;;11.23;3.88;;;;;;;;;;10152823;29;20258;-67
2022/03/30 11:33:40;;;;;;;16.35;4.38;;;;;;;;;;10166996;29;20045;-66
2022/03/30 11:38:46;;;;;;;7.45;3.67;;;;;;;;;;10155338;29;20055;-67
2022/03/30 11:49:09;;;;;;;11.13;3.92;;;;;;;;;;10168141;29;20051;-68
2022/03/30 11:54:13;;;;;;;11.93;4.00;;;;;;;;;;10155481;29;20104;-68
2022/03/30 11:59:19;;;;;;;6.63;3.83;;;;;;;;;;10153871;29;20163;-68
2022/03/30 12:04:25;;;;;;;7.13;3.70;;;;;;;;;;10161637;29;20375;-69
2022/03/30 12:09:27;;;;;;;7.80;3.92;;;;;;;;;;10165170;29;20093;-66
2022/03/30 12:14:29;;;;;;;7.82;3.58;;;;;;;;;;10151984;29;20071;-68
2022/03/30 12:19:33;;;;;;;3.85;3.25;;;;;;;;;;10154097;29;20240;-67
2022/03/30 12:24:35;;;;;;;8.60;4.35;;;;;;;;;;10154118;29;20135;-67
2022/03/30 12:29:38;;;;;;;7.55;3.08;;;;;;;;;;10153933;29;20124;-66
2022/03/30 12:34:42;;;;;;;4.30;2.78;;;;;;;;;;10149743;29;20048;-66
2022/03/30 12:39:46;;;;;;;8.85;3.00;;;;;;;;;;10154012;29;20087;-68
2022/03/30 12:44:51;;;;;;;7.38;5.03;;;;;;;;;;10153432;29;20378;-67
2022/03/30 12:49:56;;;;;;;14.70;3.53;;;;;;;;;;10145785;29;20380;-67
2022/03/30 12:55:13;;;;;;;12.90;4.97;;;;;;;;;;10148417;29;20372;-66
2022/03/30 13:00:16;;;;;;;6.25;2.80;;;;;;;;;;10158614;29;20052;-66
2022/03/30 13:05:24;;;;;;;5.25;2.67;;;;;;;;;;10151703;29;20060;-68
2022/03/30 13:10:26;;;;;;;4.07;2.92;;;;;;;;;;10161110;29;20052;-67
2022/03/30 13:15:33;;;;;;;4.70;2.08;;;;;;;;;;10150849;29;20088;-66
2022/03/30 13:20:39;;;;;;;7.63;4.03;;;;;;;;;;10163801;29;20048;-65
2022/03/30 13:25:43;;;;;;;7.93;4.80;;;;;;;;;;10164889;29;20044;-67
2022/03/30 13:30:46;;;;;;;11.25;4.75;;;;;;;;;;10149883;29;20374;-67
2022/03/30 13:35:50;;;;;;;11.05;5.25;;;;;;;;;;10149790;29;20059;-66
2022/03/30 13:40:54;;;;;;;8.70;5.30;;;;;;;;;;10129599;29;20053;-70
2022/03/30 13:45:56;;;;;;;13.88;6.13;;;;;;;;;;10147568;29;20052;-69
2022/03/30 13:51:01;;;;;;;22.75;6.63;;;;;;;;;;10150593;29;20052;-70
2022/03/30 13:56:04;;;;;;;9.50;5.63;;;;;;;;;;10150507;29;20052;-71
2022/03/30 14:01:07;;;;;;;16.50;6.05;;;;;;;;;;10152228;29;20044;-73
2022/03/30 14:06:11;;;;;;;9.93;5.72;;;;;;;;;;10151536;29;20048;-69
2022/03/30 14:11:14;;;;;;;7.73;5.83;;;;;;;;;;10152897;29;20044;-68
2022/03/30 14:16:16;;;;;;;10.95;7.03;;;;;;;;;;10152245;29;20062;-71
2022/03/30 14:21:20;;;;;;;26.88;8.45;;;;;;;;;;10146219;29;20407;-68
2022/03/30 14:26:22;;;;;;;17.67;8.02;;;;;;;;;;10143871;29;20084;-69
2022/03/30 14:31:24;;;;;;;18.35;8.88;;;;;;;;;;10151600;29;20041;-67
2022/03/30 14:36:28;;;;;;;18.42;8.07;;;;;;;;;;10151960;29;20052;-67
2022/03/30 14:41:31;;;;;;;22.23;8.20;;;;;;;;;;10149197;29;20057;-67
2022/03/30 14:46:34;;;;;;;11.43;7.40;;;;;;;;;;10140306;29;20087;-67
2022/03/30 14:51:38;;;;;;;13.40;7.90;;;;;;;;;;10113723;29;20080;-67
2022/03/30 14:56:40;;;;;;;19.23;8.43;;;;;;;;;;10143766;29;20045;-66
2022/03/30 15:01:43;;;;;;;13.95;8.20;;;;;;;;;;10142994;29;20056;-67
2022/03/30 15:06:47;;;;;;;16.95;8.52;;;;;;;;;;10150656;29;20072;-67
2022/03/30 15:11:50;;;;;;;18.73;7.75;;;;;;;;;;10151357;29;20319;-67
2022/03/30 15:16:52;;;;;;;34.05;8.07;;;;;;;;;;10153137;29;20073;-67
2022/03/30 15:21:56;;;;;;;11.40;6.88;;;;;;;;;;10150645;29;20048;-68
2022/03/30 15:26:58;;;;;;;26.83;7.78;;;;;;;;;;10156288;29;20064;-68
2022/03/30 15:32:00;;;;;;;10.57;7.25;;;;;;;;;;10158061;29;20060;-69
2022/03/30 15:37:05;;;;;;;19.48;7.90;;;;;;;;;;10159399;29;20052;-68
2022/03/30 15:42:07;;;;;;;12.00;7.15;;;;;;;;;;10159166;29;20048;-68
2022/03/30 15:47:10;;;;;;;12.63;6.60;;;;;;;;;;10142708;29;20041;-66
2022/03/30 15:52:16;;;;;;;12.05;7.18;;;;;;;;;;10159053;29;20374;-67
2022/03/30 15:57:18;;;;;;;14.27;7.45;;;;;;;;;;10162809;29;20044;-66
2022/03/30 16:02:20;;;;;;;13.35;6.22;;;;;;;;;;10157450;29;20269;-67
2022/03/30 16:07:25;;;;;;;13.13;6.28;;;;;;;;;;10157039;29;20079;-67
2022/03/30 16:12:28;;;;;;;13.70;7.10;;;;;;;;;;10156240;29;20452;-67
2022/03/30 16:17:31;;;;;;;14.38;6.35;;;;;;;;;;10156397;29;20273;-67
2022/03/30 16:22:34;;;;;;;7.55;6.38;;;;;;;;;;10154991;29;20048;-68
2022/03/30 16:27:37;;;;;;;24.13;7.25;;;;;;;;;;10156060;29;20084;-66
2022/03/30 16:32:39;;;;;;;10.73;6.32;;;;;;;;;;10145753;29;20072;-66
2022/03/30 16:37:44;;;;;;;11.13;6.93;;;;;;;;;;10128918;29;20052;-67
2022/03/30 16:42:49;;;;;;;15.27;6.75;;;;;;;;;;10155123;29;20132;-67
2022/03/30 16:47:51;;;;;;;18.00;6.47;;;;;;;;;;10154851;29;20134;-66
2022/03/30 16:52:56;;;;;;;12.55;7.10;;;;;;;;;;10155698;29;20459;-67
2022/03/30 16:57:58;;;;;;;13.05;6.70;;;;;;;;;;10155460;29;20052;-67
2022/03/30 17:03:01;;;;;;;9.65;6.43;;;;;;;;;;10155218;29;20146;-68
2022/03/30 17:13:25;;;;;;;10.75;5.90;;;;;;;;;;10161951;29;20051;-66
2022/03/30 17:18:28;;;;;;;12.27;6.65;;;;;;;;;;10152799;29;20056;-67
2022/03/30 17:23:31;;;;;;;8.90;5.93;;;;;;;;;;10151749;29;20052;-68
2022/03/30 17:28:34;;;;;;;9.68;6.22;;;;;;;;;;10148077;29;20056;-67
2022/03/30 17:33:36;;;;;;;11.20;6.93;;;;;;;;;;10152462;29;20045;-68
2022/03/30 17:38:40;;;;;;;15.95;6.70;;;;;;;;;;10151283;29;20044;-67
2022/03/30 17:43:43;;;;;;;12.23;6.78;;;;;;;;;;10151936;29;20049;-68
2022/03/30 17:54:06;;;;;;;12.48;6.78;;;;;;;;;;10163394;29;20295;-66
2022/03/30 17:59:09;;;;;;;13.05;6.63;;;;;;;;;;10149711;29;20048;-67
2022/03/30 18:04:12;;;;;;;7.28;5.95;;;;;;;;;;10149654;29;20052;-66
2022/03/30 18:09:15;;;;;;;15.02;7.25;;;;;;;;;;10150615;29;20517;-67
2022/03/30 18:14:18;;;;;;;11.18;7.10;;;;;;;;;;10150344;29;20343;-68
2022/03/30 18:19:20;;;;;;;11.38;7.00;;;;;;;;;;10150680;29;20043;-67
2022/03/30 18:24:26;;;;;;;8.15;6.45;;;;;;;;;;10150705;29;20088;-68
2022/03/30 18:29:28;;;;;;;12.73;8.00;;;;;;;;;;10156249;29;20044;-67
2022/03/30 18:34:31;;;;;;;13.05;6.78;;;;;;;;;;10149346;29;20239;-68
2022/03/30 18:39:35;;;;;;;12.95;6.97;;;;;;;;;;10143713;29;20352;-67
2022/03/30 18:44:37;;;;;;;12.82;6.15;;;;;;;;;;10145723;29;20383;-68
2022/03/30 18:49:40;;;;;;;11.88;7.88;;;;;;;;;;10142945;29;20169;-68
2022/03/30 18:54:44;;;;;;;11.02;7.03;;;;;;;;;;10150430;29;20069;-67
2022/03/30 18:59:47;;;;;;;11.57;7.15;;;;;;;;;;10149247;29;20104;-68
2022/03/30 19:04:51;;;;;;;12.50;6.88;;;;;;;;;;10157625;29;20374;-67
2022/03/30 19:09:54;;;;;;;14.80;7.82;;;;;;;;;;10158214;29;20079;-67
2022/03/30 19:14:56;;;;;;;18.50;8.70;;;;;;;;;;10156056;29;20144;-67
2022/03/30 19:19:59;;;;;;;16.92;8.27;;;;;;;;;;10157769;29;20052;-66
2022/03/30 19:25:03;;;;;;;14.63;8.15;;;;;;;;;;10157232;29;20112;-68
2022/03/30 19:30:07;;;;;;;13.93;8.52;;;;;;;;;;10156581;29;20089;-68
2022/03/30 19:35:09;;;;;;;10.18;6.57;;;;;;;;;;10155695;29;20056;-69
2022/03/30 19:40:13;;;;;;;12.80;6.88;;;;;;;;;;10153900;29;20225;-68
2022/03/30 19:45:16;;;;;;;12.02;6.40;;;;;;;;;;10155094;29;20049;-68
2022/03/30 19:50:20;;;;;;;9.60;6.10;;;;;;;;;;10145389;29;20059;-67
2022/03/30 19:55:25;;;;;;;11.50;5.97;;;;;;;;;;10156376;29;20275;-67
2022/03/30 20:00:28;;;;;;;11.07;6.25;;;;;;;;;;10153256;29;21452;-67
2022/03/30 20:05:31;;;;;;;9.68;6.05;;;;;;;;;;10148354;29;20068;-66
2022/03/30 20:10:35;;;;;;;6.38;5.10;;;;;;;;;;10153130;29;20064;-67
2022/03/30 20:15:37;;;;;;;10.35;5.60;;;;;;;;;;10153526;29;20051;-68
2022/03/30 20:20:40;;;;;;;12.25;5.70;;;;;;;;;;10154313;29;20276;-67
2022/03/30 20:25:44;;;;;;;8.43;5.35;;;;;;;;;;10153673;29;20066;-66
2022/03/30 20:30:46;;;;;;;10.40;5.15;;;;;;;;;;10151614;29;20057;-67
2022/03/30 20:35:48;;;;;;;9.93;5.10;;;;;;;;;;10153137;29;20095;-66
2022/03/30 20:40:53;;;;;;;9.43;4.90;;;;;;;;;;10147589;29;20045;-67
2022/03/30 20:45:55;;;;;;;9.98;5.57;;;;;;;;;;10152992;29;20045;-68
2022/03/30 20:51:02;;;;;;;6.75;5.50;;;;;;;;;;10153324;29;20331;-66
2022/03/30 20:56:07;;;;;;;12.07;6.15;;;;;;;;;;10160226;29;20047;-67
2022/03/30 21:01:09;;;;;;;11.37;7.30;;;;;;;;;;10153860;29;20079;-66
2022/03/30 21:06:12;;;;;;;11.98;6.38;;;;;;;;;;10153727;29;20379;-67
2022/03/30 21:11:16;;;;;;;10.45;5.70;;;;;;;;;;10151844;29;20079;-67
2022/03/30 21:16:19;;;;;;;8.50;5.97;;;;;;;;;;10151938;29;20056;-66
2022/03/30 21:21:21;;;;;;;9.40;6.07;;;;;;;;;;10151914;29;20047;-68
2022/03/30 21:26:25;;;;;;;15.80;6.85;;;;;;;;;;10153272;29;20220;-65
2022/03/30 21:31:27;;;;;;;9.45;5.93;;;;;;;;;;10146769;29;20060;-66
2022/03/30 21:36:30;;;;;;;14.25;5.88;;;;;;;;;;10153705;29;20068;-66
2022/03/30 21:41:37;;;;;;;11.55;5.95;;;;;;;;;;10154642;29;20044;-67
2022/03/30 21:46:40;;;;;;;8.23;5.57;;;;;;;;;;10152011;29;20051;-67
2022/03/30 21:51:43;;;;;;;10.70;6.15;;;;;;;;;;10152927;29;20052;-66
2022/03/30 21:56:46;;;;;;;10.98;6.63;;;;;;;;;;10152737;29;20044;-66
2022/03/30 22:01:49;;;;;;;27.13;9.95;;;;;;;;;;10152339;29;20048;-67
2022/03/30 22:06:52;;;;;;;15.75;7.20;;;;;;;;;;10151881;29;20162;-66
2022/03/30 22:11:56;;;;;;;12.73;6.78;;;;;;;;;;10151484;29;20079;-67
2022/03/30 22:16:59;;;;;;;11.32;6.93;;;;;;;;;;10151303;29;20045;-67
2022/03/30 22:22:01;;;;;;;10.80;7.22;;;;;;;;;;10150981;29;20059;-67
2022/03/30 22:27:05;;;;;;;11.50;6.57;;;;;;;;;;10152092;29;20316;-66
2022/03/30 22:37:28;;;;;;;12.23;5.95;;;;;;;;;;10150718;29;20068;-65
2022/03/30 22:42:32;;;;;;;13.55;7.30;;;;;;;;;;10149929;29;20148;-66
2022/03/30 22:47:35;;;;;;;15.45;7.40;;;;;;;;;;10150832;29;20059;-67
2022/03/30 22:52:38;;;;;;;12.15;7.68;;;;;;;;;;10151145;29;20063;-66
2022/03/30 22:57:44;;;;;;;14.75;8.10;;;;;;;;;;10150556;29;20055;-66
2022/03/30 23:02:47;;;;;;;15.60;7.85;;;;;;;;;;10164290;29;20051;-67
2022/03/30 23:13:12;;;;;;;15.20;8.02;;;;;;;;;;10112775;29;20061;-67
2022/03/30 23:18:16;;;;;;;14.27;7.40;;;;;;;;;;10134197;29;20032;-66
2022/03/30 23:23:19;;;;;;;16.90;7.43;;;;;;;;;;10150722;29;20057;-66
2022/03/30 23:28:24;;;;;;;14.20;8.10;;;;;;;;;;10150896;29;20052;-66
2022/03/30 23:33:26;;;;;;;15.82;8.65;;;;;;;;;;10150351;29;20056;-66
2022/03/30 23:38:29;;;;;;;18.80;8.55;;;;;;;;;;10150535;29;20045;-67
2022/03/30 23:43:32;;;;;;;15.43;9.13;;;;;;;;;;10150950;29;20045;-67
2022/03/30 23:48:36;;;;;;;17.58;8.85;;;;;;;;;;10154919;29;20041;-67
2022/03/30 23:53:38;;;;;;;17.55;9.05;;;;;;;;;;10158100;29;20255;-67
2022/03/30 23:58:42;;;;;;;17.77;8.90;;;;;;;;;;10156904;29;20044;-65
